Terminal Aerodrome Forecast
Issued by NWS

Home | Current Version | Previous Version | Text Only | Print | Product List | Glossary On
Versions: 1 2 3 4 5 6 7 8 9 10 11 12 13 14
887
FTUS43 KOAX 221722
TAFBFF
TAF
KBFF 221722Z 2218/2318 29016G24KT P6SM BKN110
     FM222300 01009KT P6SM OVC090
     FM230500 04009KT 2SM -SN BR OVC010=

USA.gov is the U.S. government's official web portal to all federal, state and local government web resources and services.